sensor_id;sensor_type;location;lat;lon;timestamp;temperature;humidity
28763;DHT22;15918;51.270;6.522;2022-10-31T00:00:54;18.70;70.00
28763;DHT22;15918;51.270;6.522;2022-10-31T00:03:20;18.70;70.00
28763;DHT22;15918;51.270;6.522;2022-10-31T00:05:47;18.70;70.00
28763;DHT22;15918;51.270;6.522;2022-10-31T00:08:14;18.70;70.00
28763;DHT22;15918;51.270;6.522;2022-10-31T00:10:41;18.70;69.90
28763;DHT22;15918;51.270;6.522;2022-10-31T00:13:08;18.70;70.00
28763;DHT22;15918;51.270;6.522;2022-10-31T00:15:38;18.70;70.00
28763;DHT22;15918;51.270;6.522;2022-10-31T00:18:04;18.70;69.90
28763;DHT22;15918;51.270;6.522;2022-10-31T00:20:30;18.70;70.00
28763;DHT22;15918;51.270;6.522;2022-10-31T00:23:00;18.60;69.90
28763;DHT22;15918;51.270;6.522;2022-10-31T00:25:28;18.60;69.90
28763;DHT22;15918;51.270;6.522;2022-10-31T00:27:54;18.60;70.00
28763;DHT22;15918;51.270;6.522;2022-10-31T00:30:19;18.60;70.00
28763;DHT22;15918;51.270;6.522;2022-10-31T00:32:45;18.60;70.00
28763;DHT22;15918;51.270;6.522;2022-10-31T00:35:11;18.60;70.00
28763;DHT22;15918;51.270;6.522;2022-10-31T00:37:36;18.60;70.00
28763;DHT22;15918;51.270;6.522;2022-10-31T00:40:02;18.60;70.00
28763;DHT22;15918;51.270;6.522;2022-10-31T00:42:28;18.60;70.00
28763;DHT22;15918;51.270;6.522;2022-10-31T00:44:53;18.60;70.10
28763;DHT22;15918;51.270;6.522;2022-10-31T00:47:18;18.60;70.10
28763;DHT22;15918;51.270;6.522;2022-10-31T00:49:44;18.70;70.20
28763;DHT22;15918;51.270;6.522;2022-10-31T00:52:10;18.60;70.20
28763;DHT22;15918;51.270;6.522;2022-10-31T00:54:35;18.60;70.20
28763;DHT22;15918;51.270;6.522;2022-10-31T00:57:01;18.60;70.10
28763;DHT22;15918;51.270;6.522;2022-10-31T00:59:26;18.60;70.30
28763;DHT22;15918;51.270;6.522;2022-10-31T01:01:52;18.60;70.20
28763;DHT22;15918;51.270;6.522;2022-10-31T01:04:18;18.60;70.30
28763;DHT22;15918;51.270;6.522;2022-10-31T01:06:43;18.60;70.30
28763;DHT22;15918;51.270;6.522;2022-10-31T01:09:09;18.60;70.40
28763;DHT22;15918;51.270;6.522;2022-10-31T01:11:34;18.50;70.40
28763;DHT22;15918;51.270;6.522;2022-10-31T01:14:00;18.50;70.40
28763;DHT22;15918;51.270;6.522;2022-10-31T01:16:26;18.60;70.50
28763;DHT22;15918;51.270;6.522;2022-10-31T01:18:52;18.50;70.40
28763;DHT22;15918;51.270;6.522;2022-10-31T01:21:23;18.60;70.40
28763;DHT22;15918;51.270;6.522;2022-10-31T01:23:50;18.50;70.40
28763;DHT22;15918;51.270;6.522;2022-10-31T01:26:26;18.50;70.40
28763;DHT22;15918;51.270;6.522;2022-10-31T01:29:04;18.50;70.40
28763;DHT22;15918;51.270;6.522;2022-10-31T01:31:32;18.50;70.40
28763;DHT22;15918;51.270;6.522;2022-10-31T01:33:58;18.50;70.40
28763;DHT22;15918;51.270;6.522;2022-10-31T01:36:27;18.50;70.40
28763;DHT22;15918;51.270;6.522;2022-10-31T01:38:57;18.50;70.30
28763;DHT22;15918;51.270;6.522;2022-10-31T01:41:26;18.50;70.20
28763;DHT22;15918;51.270;6.522;2022-10-31T01:43:58;18.50;70.20
28763;DHT22;15918;51.270;6.522;2022-10-31T01:46:32;18.50;70.10
28763;DHT22;15918;51.270;6.522;2022-10-31T01:49:01;18.50;70.00
28763;DHT22;15918;51.270;6.522;2022-10-31T01:51:31;18.50;70.00
28763;DHT22;15918;51.270;6.522;2022-10-31T01:54:02;18.50;69.90
28763;DHT22;15918;51.270;6.522;2022-10-31T01:56:30;18.50;69.80
28763;DHT22;15918;51.270;6.522;2022-10-31T01:58:57;18.40;69.80
28763;DHT22;15918;51.270;6.522;2022-10-31T02:01:25;18.40;69.70
28763;DHT22;15918;51.270;6.522;2022-10-31T02:03:51;18.40;69.70
28763;DHT22;15918;51.270;6.522;2022-10-31T02:06:54;18.40;69.70
28763;DHT22;15918;51.270;6.522;2022-10-31T02:09:22;18.40;69.50
28763;DHT22;15918;51.270;6.522;2022-10-31T02:11:53;18.40;69.70
28763;DHT22;15918;51.270;6.522;2022-10-31T02:14:26;18.40;69.80
28763;DHT22;15918;51.270;6.522;2022-10-31T02:16:53;18.40;69.70
28763;DHT22;15918;51.270;6.522;2022-10-31T02:19:31;18.40;69.80
28763;DHT22;15918;51.270;6.522;2022-10-31T02:22:07;18.40;69.80
28763;DHT22;15918;51.270;6.522;2022-10-31T02:24:58;18.40;69.80
28763;DHT22;15918;51.270;6.522;2022-10-31T02:30:20;18.30;69.80
28763;DHT22;15918;51.270;6.522;2022-10-31T02:32:57;18.30;69.70
28763;DHT22;15918;51.270;6.522;2022-10-31T02:38:31;18.30;69.80
28763;DHT22;15918;51.270;6.522;2022-10-31T02:46:45;18.20;69.50
28763;DHT22;15918;51.270;6.522;2022-10-31T02:49:38;18.20;69.60
28763;DHT22;15918;51.270;6.522;2022-10-31T02:52:34;18.30;69.30
28763;DHT22;15918;51.270;6.522;2022-10-31T02:58:04;18.20;69.10
28763;DHT22;15918;51.270;6.522;2022-10-31T03:00:40;18.20;69.30
28763;DHT22;15918;51.270;6.522;2022-10-31T03:06:11;18.20;69.00
28763;DHT22;15918;51.270;6.522;2022-10-31T03:11:23;18.20;69.00
28763;DHT22;15918;51.270;6.522;2022-10-31T03:16:25;18.10;68.70
28763;DHT22;15918;51.270;6.522;2022-10-31T03:19:03;18.10;68.80
28763;DHT22;15918;51.270;6.522;2022-10-31T03:23:59;18.10;68.50
28763;DHT22;15918;51.270;6.522;2022-10-31T03:26:25;18.20;68.70
28763;DHT22;15918;51.270;6.522;2022-10-31T03:29:01;18.10;68.50
28763;DHT22;15918;51.270;6.522;2022-10-31T03:31:34;18.10;68.20
28763;DHT22;15918;51.270;6.522;2022-10-31T03:34:02;18.10;68.20
28763;DHT22;15918;51.270;6.522;2022-10-31T03:36:30;18.10;68.20
28763;DHT22;15918;51.270;6.522;2022-10-31T03:38:59;18.10;68.30
28763;DHT22;15918;51.270;6.522;2022-10-31T03:41:29;18.10;68.10
28763;DHT22;15918;51.270;6.522;2022-10-31T03:44:04;18.10;68.00
28763;DHT22;15918;51.270;6.522;2022-10-31T03:46:31;18.10;67.90
28763;DHT22;15918;51.270;6.522;2022-10-31T03:48:58;18.10;68.00
28763;DHT22;15918;51.270;6.522;2022-10-31T03:51:32;18.00;67.90
28763;DHT22;15918;51.270;6.522;2022-10-31T03:57:08;18.00;67.90
28763;DHT22;15918;51.270;6.522;2022-10-31T03:59:42;18.00;68.00
28763;DHT22;15918;51.270;6.522;2022-10-31T04:02:22;18.00;67.90
28763;DHT22;15918;51.270;6.522;2022-10-31T04:04:51;18.00;67.90
28763;DHT22;15918;51.270;6.522;2022-10-31T04:07:18;18.00;68.10
28763;DHT22;15918;51.270;6.522;2022-10-31T04:09:45;18.00;68.10
28763;DHT22;15918;51.270;6.522;2022-10-31T04:12:14;18.00;68.10
28763;DHT22;15918;51.270;6.522;2022-10-31T04:14:42;18.00;68.20
28763;DHT22;15918;51.270;6.522;2022-10-31T04:17:13;17.90;68.10
28763;DHT22;15918;51.270;6.522;2022-10-31T04:19:39;17.90;68.10
28763;DHT22;15918;51.270;6.522;2022-10-31T04:22:06;17.90;68.20
28763;DHT22;15918;51.270;6.522;2022-10-31T04:24:32;17.90;68.10
28763;DHT22;15918;51.270;6.522;2022-10-31T04:26:57;17.90;68.10
28763;DHT22;15918;51.270;6.522;2022-10-31T04:29:23;17.90;68.90
28763;DHT22;15918;51.270;6.522;2022-10-31T04:31:48;17.90;68.10
28763;DHT22;15918;51.270;6.522;2022-10-31T04:34:14;17.90;68.20
28763;DHT22;15918;51.270;6.522;2022-10-31T04:36:40;17.90;68.20
28763;DHT22;15918;51.270;6.522;2022-10-31T04:39:05;17.90;68.10
28763;DHT22;15918;51.270;6.522;2022-10-31T04:41:31;17.90;68.10
28763;DHT22;15918;51.270;6.522;2022-10-31T04:43:56;17.90;68.10
28763;DHT22;15918;51.270;6.522;2022-10-31T04:46:22;17.90;68.20
28763;DHT22;15918;51.270;6.522;2022-10-31T04:48:48;17.90;68.20
28763;DHT22;15918;51.270;6.522;2022-10-31T04:51:14;17.90;68.20
28763;DHT22;15918;51.270;6.522;2022-10-31T04:53:39;17.80;68.10
28763;DHT22;15918;51.270;6.522;2022-10-31T04:56:05;17.80;68.10
28763;DHT22;15918;51.270;6.522;2022-10-31T04:58:31;17.80;68.10
28763;DHT22;15918;51.270;6.522;2022-10-31T05:00:57;17.90;68.10
28763;DHT22;15918;51.270;6.522;2022-10-31T05:03:22;17.80;68.00
28763;DHT22;15918;51.270;6.522;2022-10-31T05:05:48;17.80;68.00
28763;DHT22;15918;51.270;6.522;2022-10-31T05:08:14;17.80;68.00
28763;DHT22;15918;51.270;6.522;2022-10-31T05:10:40;17.80;67.90
28763;DHT22;15918;51.270;6.522;2022-10-31T05:13:06;17.90;67.90
28763;DHT22;15918;51.270;6.522;2022-10-31T05:15:31;17.80;67.90
28763;DHT22;15918;51.270;6.522;2022-10-31T05:17:57;17.70;67.80
28763;DHT22;15918;51.270;6.522;2022-10-31T05:20:25;17.80;67.90
28763;DHT22;15918;51.270;6.522;2022-10-31T05:22:54;17.80;67.90
28763;DHT22;15918;51.270;6.522;2022-10-31T05:25:22;17.70;67.80
28763;DHT22;15918;51.270;6.522;2022-10-31T05:27:49;17.80;67.80
28763;DHT22;15918;51.270;6.522;2022-10-31T05:30:21;17.70;67.70
28763;DHT22;15918;51.270;6.522;2022-10-31T05:32:49;17.70;67.80
28763;DHT22;15918;51.270;6.522;2022-10-31T05:35:20;17.70;67.70
28763;DHT22;15918;51.270;6.522;2022-10-31T05:37:46;17.70;67.70
28763;DHT22;15918;51.270;6.522;2022-10-31T05:40:13;17.70;67.70
28763;DHT22;15918;51.270;6.522;2022-10-31T05:42:40;17.70;67.80
28763;DHT22;15918;51.270;6.522;2022-10-31T05:45:11;17.70;67.70
28763;DHT22;15918;51.270;6.522;2022-10-31T05:47:37;17.70;67.70
28763;DHT22;15918;51.270;6.522;2022-10-31T05:50:03;17.60;67.70
28763;DHT22;15918;51.270;6.522;2022-10-31T05:52:29;17.70;67.70
28763;DHT22;15918;51.270;6.522;2022-10-31T05:54:54;17.60;67.70
28763;DHT22;15918;51.270;6.522;2022-10-31T05:57:20;17.60;67.80
28763;DHT22;15918;51.270;6.522;2022-10-31T05:59:46;17.60;67.80
28763;DHT22;15918;51.270;6.522;2022-10-31T06:02:11;17.60;67.80
28763;DHT22;15918;51.270;6.522;2022-10-31T06:04:37;17.60;67.80
28763;DHT22;15918;51.270;6.522;2022-10-31T06:07:02;17.60;67.80
28763;DHT22;15918;51.270;6.522;2022-10-31T06:09:28;17.60;67.80
28763;DHT22;15918;51.270;6.522;2022-10-31T06:11:53;17.60;67.80
28763;DHT22;15918;51.270;6.522;2022-10-31T06:14:19;17.60;67.70
28763;DHT22;15918;51.270;6.522;2022-10-31T06:16:44;17.60;67.70
28763;DHT22;15918;51.270;6.522;2022-10-31T06:19:10;17.60;68.50
28763;DHT22;15918;51.270;6.522;2022-10-31T06:21:36;17.60;67.60
28763;DHT22;15918;51.270;6.522;2022-10-31T06:24:01;17.60;67.60
28763;DHT22;15918;51.270;6.522;2022-10-31T06:26:27;17.60;67.60
28763;DHT22;15918;51.270;6.522;2022-10-31T06:28:52;17.50;67.50
28763;DHT22;15918;51.270;6.522;2022-10-31T06:31:18;17.50;67.60
28763;DHT22;15918;51.270;6.522;2022-10-31T06:33:43;17.50;67.70
28763;DHT22;15918;51.270;6.522;2022-10-31T06:36:09;17.50;67.80
28763;DHT22;15918;51.270;6.522;2022-10-31T06:38:35;17.50;67.90
28763;DHT22;15918;51.270;6.522;2022-10-31T06:41:04;17.50;68.00
28763;DHT22;15918;51.270;6.522;2022-10-31T06:43:30;17.50;68.00
28763;DHT22;15918;51.270;6.522;2022-10-31T06:45:56;17.50;68.00
28763;DHT22;15918;51.270;6.522;2022-10-31T06:48:22;17.50;68.10
28763;DHT22;15918;51.270;6.522;2022-10-31T06:50:48;17.50;68.10
28763;DHT22;15918;51.270;6.522;2022-10-31T06:53:13;17.50;68.10
28763;DHT22;15918;51.270;6.522;2022-10-31T06:55:40;17.50;68.10
28763;DHT22;15918;51.270;6.522;2022-10-31T06:58:06;17.50;68.20
28763;DHT22;15918;51.270;6.522;2022-10-31T07:00:32;17.40;68.10
28763;DHT22;15918;51.270;6.522;2022-10-31T07:03:03;17.50;68.20
28763;DHT22;15918;51.270;6.522;2022-10-31T07:05:29;17.40;68.10
28763;DHT22;15918;51.270;6.522;2022-10-31T07:08:06;17.40;68.20
28763;DHT22;15918;51.270;6.522;2022-10-31T07:10:33;17.40;68.10
28763;DHT22;15918;51.270;6.522;2022-10-31T07:13:01;17.40;68.30
28763;DHT22;15918;51.270;6.522;2022-10-31T07:15:29;17.50;68.40
28763;DHT22;15918;51.270;6.522;2022-10-31T07:18:07;17.40;68.40
28763;DHT22;15918;51.270;6.522;2022-10-31T07:20:33;17.40;68.30
28763;DHT22;15918;51.270;6.522;2022-10-31T07:22:59;17.40;68.40
28763;DHT22;15918;51.270;6.522;2022-10-31T07:25:26;17.50;68.40
28763;DHT22;15918;51.270;6.522;2022-10-31T07:27:52;17.40;68.40
28763;DHT22;15918;51.270;6.522;2022-10-31T07:30:18;17.40;68.40
28763;DHT22;15918;51.270;6.522;2022-10-31T07:32:46;17.40;68.50
28763;DHT22;15918;51.270;6.522;2022-10-31T07:35:14;17.40;68.50
28763;DHT22;15918;51.270;6.522;2022-10-31T07:37:40;17.40;68.50
28763;DHT22;15918;51.270;6.522;2022-10-31T07:40:07;17.40;68.50
28763;DHT22;15918;51.270;6.522;2022-10-31T07:42:40;17.40;68.50
28763;DHT22;15918;51.270;6.522;2022-10-31T07:45:11;17.40;68.50
28763;DHT22;15918;51.270;6.522;2022-10-31T07:47:41;17.30;68.60
28763;DHT22;15918;51.270;6.522;2022-10-31T07:50:09;17.30;68.70
28763;DHT22;15918;51.270;6.522;2022-10-31T07:52:35;17.30;68.70
28763;DHT22;15918;51.270;6.522;2022-10-31T07:55:01;17.30;68.60
28763;DHT22;15918;51.270;6.522;2022-10-31T07:57:26;17.40;68.80
28763;DHT22;15918;51.270;6.522;2022-10-31T07:59:52;17.30;68.70
28763;DHT22;15918;51.270;6.522;2022-10-31T08:02:18;17.30;68.80
28763;DHT22;15918;51.270;6.522;2022-10-31T08:04:43;17.30;68.90
28763;DHT22;15918;51.270;6.522;2022-10-31T08:07:09;17.30;68.90
28763;DHT22;15918;51.270;6.522;2022-10-31T08:09:34;17.40;68.90
28763;DHT22;15918;51.270;6.522;2022-10-31T08:12:00;17.30;69.00
28763;DHT22;15918;51.270;6.522;2022-10-31T08:14:27;17.30;69.00
28763;DHT22;15918;51.270;6.522;2022-10-31T08:16:53;17.30;69.00
28763;DHT22;15918;51.270;6.522;2022-10-31T08:19:19;17.30;69.00
28763;DHT22;15918;51.270;6.522;2022-10-31T08:21:45;17.30;69.00
28763;DHT22;15918;51.270;6.522;2022-10-31T08:24:10;17.30;69.10
28763;DHT22;15918;51.270;6.522;2022-10-31T08:26:36;17.30;69.10
28763;DHT22;15918;51.270;6.522;2022-10-31T08:29:02;17.30;69.20
28763;DHT22;15918;51.270;6.522;2022-10-31T08:31:28;17.30;69.20
28763;DHT22;15918;51.270;6.522;2022-10-31T08:33:54;17.30;69.30
28763;DHT22;15918;51.270;6.522;2022-10-31T08:36:20;17.40;69.40
28763;DHT22;15918;51.270;6.522;2022-10-31T08:38:49;17.30;69.40
28763;DHT22;15918;51.270;6.522;2022-10-31T08:41:14;17.30;69.40
28763;DHT22;15918;51.270;6.522;2022-10-31T08:43:40;17.30;69.40
28763;DHT22;15918;51.270;6.522;2022-10-31T08:46:06;17.30;69.50
28763;DHT22;15918;51.270;6.522;2022-10-31T08:48:31;17.40;69.70
28763;DHT22;15918;51.270;6.522;2022-10-31T08:50:58;17.30;69.60
28763;DHT22;15918;51.270;6.522;2022-10-31T08:53:25;17.40;69.70
28763;DHT22;15918;51.270;6.522;2022-10-31T08:55:51;17.30;69.70
28763;DHT22;15918;51.270;6.522;2022-10-31T08:58:19;17.30;69.80
28763;DHT22;15918;51.270;6.522;2022-10-31T09:00:47;17.40;69.80
28763;DHT22;15918;51.270;6.522;2022-10-31T09:03:21;17.40;69.80
28763;DHT22;15918;51.270;6.522;2022-10-31T09:05:47;17.40;69.80
28763;DHT22;15918;51.270;6.522;2022-10-31T09:08:13;17.40;69.90
28763;DHT22;15918;51.270;6.522;2022-10-31T09:10:39;17.40;69.90
28763;DHT22;15918;51.270;6.522;2022-10-31T09:13:08;17.40;69.90
28763;DHT22;15918;51.270;6.522;2022-10-31T09:15:36;17.40;69.90
28763;DHT22;15918;51.270;6.522;2022-10-31T09:18:04;17.40;70.00
28763;DHT22;15918;51.270;6.522;2022-10-31T09:20:31;17.40;70.00
28763;DHT22;15918;51.270;6.522;2022-10-31T09:23:02;17.30;70.00
28763;DHT22;15918;51.270;6.522;2022-10-31T09:25:29;17.40;70.10
28763;DHT22;15918;51.270;6.522;2022-10-31T09:27:59;17.40;70.20
28763;DHT22;15918;51.270;6.522;2022-10-31T09:30:27;17.40;70.20
28763;DHT22;15918;51.270;6.522;2022-10-31T09:32:56;17.40;70.20
28763;DHT22;15918;51.270;6.522;2022-10-31T09:35:22;17.40;70.20
28763;DHT22;15918;51.270;6.522;2022-10-31T09:37:57;17.40;70.30
28763;DHT22;15918;51.270;6.522;2022-10-31T09:40:47;17.40;70.30
28763;DHT22;15918;51.270;6.522;2022-10-31T09:46:18;17.40;70.40
28763;DHT22;15918;51.270;6.522;2022-10-31T09:51:29;17.50;70.50
28763;DHT22;15918;51.270;6.522;2022-10-31T09:54:08;17.50;70.60
28763;DHT22;15918;51.270;6.522;2022-10-31T09:56:34;17.50;70.50
28763;DHT22;15918;51.270;6.522;2022-10-31T09:59:02;17.50;70.70
28763;DHT22;15918;51.270;6.522;2022-10-31T10:01:44;17.50;70.70
28763;DHT22;15918;51.270;6.522;2022-10-31T10:07:25;17.50;70.70
28763;DHT22;15918;51.270;6.522;2022-10-31T10:09:56;17.50;70.80
28763;DHT22;15918;51.270;6.522;2022-10-31T10:18:18;17.60;70.80
28763;DHT22;15918;51.270;6.522;2022-10-31T10:23:55;17.60;71.00
28763;DHT22;15918;51.270;6.522;2022-10-31T10:26:33;17.60;70.80
28763;DHT22;15918;51.270;6.522;2022-10-31T10:29:14;17.60;70.90
28763;DHT22;15918;51.270;6.522;2022-10-31T10:31:44;17.60;70.90
28763;DHT22;15918;51.270;6.522;2022-10-31T10:34:28;17.60;70.80
28763;DHT22;15918;51.270;6.522;2022-10-31T10:37:03;17.60;70.70
28763;DHT22;15918;51.270;6.522;2022-10-31T10:39:46;17.70;70.80
28763;DHT22;15918;51.270;6.522;2022-10-31T10:42:14;17.70;70.80
28763;DHT22;15918;51.270;6.522;2022-10-31T10:45:00;17.70;70.90
28763;DHT22;15918;51.270;6.522;2022-10-31T10:48:01;17.70;70.90
28763;DHT22;15918;51.270;6.522;2022-10-31T10:50:34;17.70;70.90
28763;DHT22;15918;51.270;6.522;2022-10-31T10:53:37;17.70;70.70
28763;DHT22;15918;51.270;6.522;2022-10-31T10:56:23;17.70;70.60
28763;DHT22;15918;51.270;6.522;2022-10-31T10:58:56;17.70;70.70
28763;DHT22;15918;51.270;6.522;2022-10-31T11:01:22;17.70;70.80
28763;DHT22;15918;51.270;6.522;2022-10-31T11:03:48;17.80;71.50
28763;DHT22;15918;51.270;6.522;2022-10-31T11:06:22;17.90;70.70
28763;DHT22;15918;51.270;6.522;2022-10-31T11:08:51;17.80;70.60
28763;DHT22;15918;51.270;6.522;2022-10-31T11:13:45;17.90;70.60
28763;DHT22;15918;51.270;6.522;2022-10-31T11:16:35;17.90;70.50
28763;DHT22;15918;51.270;6.522;2022-10-31T11:21:42;17.90;70.30
28763;DHT22;15918;51.270;6.522;2022-10-31T11:26:39;17.90;70.40
28763;DHT22;15918;51.270;6.522;2022-10-31T11:29:12;18.00;70.40
28763;DHT22;15918;51.270;6.522;2022-10-31T11:31:39;17.90;70.30
28763;DHT22;15918;51.270;6.522;2022-10-31T11:34:12;18.00;71.10
28763;DHT22;15918;51.270;6.522;2022-10-31T11:36:43;18.00;70.20
28763;DHT22;15918;51.270;6.522;2022-10-31T11:39:23;18.10;70.30
28763;DHT22;15918;51.270;6.522;2022-10-31T11:41:52;18.00;70.10
28763;DHT22;15918;51.270;6.522;2022-10-31T11:44:24;18.00;70.20
28763;DHT22;15918;51.270;6.522;2022-10-31T11:47:05;18.10;70.20
28763;DHT22;15918;51.270;6.522;2022-10-31T11:49:37;18.10;70.10
28763;DHT22;15918;51.270;6.522;2022-10-31T11:52:19;18.10;70.10
28763;DHT22;15918;51.270;6.522;2022-10-31T11:54:55;18.10;70.10
28763;DHT22;15918;51.270;6.522;2022-10-31T11:57:33;18.10;70.20
28763;DHT22;15918;51.270;6.522;2022-10-31T12:00:26;18.10;70.10
28763;DHT22;15918;51.270;6.522;2022-10-31T12:05:38;18.10;70.10
28763;DHT22;15918;51.270;6.522;2022-10-31T12:08:08;18.10;70.10
28763;DHT22;15918;51.270;6.522;2022-10-31T12:11:20;18.10;70.10
28763;DHT22;15918;51.270;6.522;2022-10-31T12:14:04;18.20;69.90
28763;DHT22;15918;51.270;6.522;2022-10-31T12:22:12;18.20;70.00
28763;DHT22;15918;51.270;6.522;2022-10-31T12:25:14;18.20;69.80
28763;DHT22;15918;51.270;6.522;2022-10-31T12:31:02;18.30;69.60
28763;DHT22;15918;51.270;6.522;2022-10-31T12:36:29;18.30;69.60
28763;DHT22;15918;51.270;6.522;2022-10-31T12:42:04;18.30;69.60
28763;DHT22;15918;51.270;6.522;2022-10-31T12:47:44;18.40;69.60
28763;DHT22;15918;51.270;6.522;2022-10-31T12:50:20;18.40;69.40
28763;DHT22;15918;51.270;6.522;2022-10-31T12:53:16;18.40;69.60
28763;DHT22;15918;51.270;6.522;2022-10-31T13:00:45;18.40;69.40
28763;DHT22;15918;51.270;6.522;2022-10-31T13:03:30;18.40;69.40
28763;DHT22;15918;51.270;6.522;2022-10-31T13:06:03;18.50;69.40
28763;DHT22;15918;51.270;6.522;2022-10-31T13:08:43;18.50;69.40
28763;DHT22;15918;51.270;6.522;2022-10-31T13:11:15;18.50;69.40
28763;DHT22;15918;51.270;6.522;2022-10-31T13:16:23;18.50;69.30
28763;DHT22;15918;51.270;6.522;2022-10-31T13:21:30;18.60;69.20
28763;DHT22;15918;51.270;6.522;2022-10-31T13:24:01;18.50;69.10
28763;DHT22;15918;51.270;6.522;2022-10-31T13:29:15;18.60;68.90
28763;DHT22;15918;51.270;6.522;2022-10-31T13:31:43;18.60;69.00
28763;DHT22;15918;51.270;6.522;2022-10-31T13:34:36;18.60;69.00
28763;DHT22;15918;51.270;6.522;2022-10-31T13:37:33;18.60;68.70
28763;DHT22;15918;51.270;6.522;2022-10-31T13:45:17;18.70;68.70
28763;DHT22;15918;51.270;6.522;2022-10-31T13:47:54;18.60;68.70
28763;DHT22;15918;51.270;6.522;2022-10-31T13:50:37;18.60;68.60
28763;DHT22;15918;51.270;6.522;2022-10-31T13:53:19;18.60;68.50
28763;DHT22;15918;51.270;6.522;2022-10-31T13:55:48;18.70;68.40
28763;DHT22;15918;51.270;6.522;2022-10-31T14:03:37;18.70;68.00
28763;DHT22;15918;51.270;6.522;2022-10-31T14:06:04;18.70;68.10
28763;DHT22;15918;51.270;6.522;2022-10-31T14:08:33;18.70;68.00
28763;DHT22;15918;51.270;6.522;2022-10-31T14:10:59;18.70;67.90
28763;DHT22;15918;51.270;6.522;2022-10-31T14:13:32;18.70;67.80
28763;DHT22;15918;51.270;6.522;2022-10-31T14:16:05;18.80;67.80
28763;DHT22;15918;51.270;6.522;2022-10-31T14:18:39;18.70;67.60
28763;DHT22;15918;51.270;6.522;2022-10-31T14:23:51;18.70;67.60
28763;DHT22;15918;51.270;6.522;2022-10-31T14:28:57;18.80;67.60
28763;DHT22;15918;51.270;6.522;2022-10-31T14:31:43;18.80;67.70
28763;DHT22;15918;51.270;6.522;2022-10-31T14:36:58;18.80;67.70
28763;DHT22;15918;51.270;6.522;2022-10-31T14:39:35;18.80;67.40
28763;DHT22;15918;51.270;6.522;2022-10-31T14:42:23;18.80;67.50
28763;DHT22;15918;51.270;6.522;2022-10-31T14:50:49;18.80;67.40
28763;DHT22;15918;51.270;6.522;2022-10-31T14:55:54;18.80;67.40
28763;DHT22;15918;51.270;6.522;2022-10-31T14:58:46;18.80;67.40
28763;DHT22;15918;51.270;6.522;2022-10-31T15:01:29;18.80;67.10
28763;DHT22;15918;51.270;6.522;2022-10-31T15:04:01;18.80;67.10
28763;DHT22;15918;51.270;6.522;2022-10-31T15:06:31;18.80;67.20
28763;DHT22;15918;51.270;6.522;2022-10-31T15:09:01;18.80;67.10
28763;DHT22;15918;51.270;6.522;2022-10-31T15:11:27;18.80;67.10
28763;DHT22;15918;51.270;6.522;2022-10-31T15:13:57;18.90;67.20
28763;DHT22;15918;51.270;6.522;2022-10-31T15:16:35;18.80;67.10
28763;DHT22;15918;51.270;6.522;2022-10-31T15:19:10;18.80;67.00
28763;DHT22;15918;51.270;6.522;2022-10-31T15:21:41;18.80;67.10
28763;DHT22;15918;51.270;6.522;2022-10-31T15:24:12;18.80;67.10
28763;DHT22;15918;51.270;6.522;2022-10-31T15:26:44;18.80;67.10
28763;DHT22;15918;51.270;6.522;2022-10-31T15:29:16;18.90;67.10
28763;DHT22;15918;51.270;6.522;2022-10-31T15:34:40;18.90;67.00
28763;DHT22;15918;51.270;6.522;2022-10-31T15:37:11;18.80;67.00
28763;DHT22;15918;51.270;6.522;2022-10-31T15:39:37;18.80;66.90
28763;DHT22;15918;51.270;6.522;2022-10-31T15:42:03;18.80;66.90
28763;DHT22;15918;51.270;6.522;2022-10-31T15:44:36;18.80;66.80
28763;DHT22;15918;51.270;6.522;2022-10-31T15:47:04;18.90;66.90
28763;DHT22;15918;51.270;6.522;2022-10-31T15:55:26;18.90;66.70
28763;DHT22;15918;51.270;6.522;2022-10-31T15:57:57;18.90;66.70
28763;DHT22;15918;51.270;6.522;2022-10-31T16:00:44;18.80;66.80
28763;DHT22;15918;51.270;6.522;2022-10-31T16:03:31;18.90;66.70
28763;DHT22;15918;51.270;6.522;2022-10-31T16:05:59;18.90;66.70
28763;DHT22;15918;51.270;6.522;2022-10-31T16:08:26;18.80;66.80
28763;DHT22;15918;51.270;6.522;2022-10-31T16:13:34;18.80;66.60
28763;DHT22;15918;51.270;6.522;2022-10-31T16:16:03;18.80;66.60
28763;DHT22;15918;51.270;6.522;2022-10-31T16:18:36;18.80;66.60
28763;DHT22;15918;51.270;6.522;2022-10-31T16:21:03;18.90;66.70
28763;DHT22;15918;51.270;6.522;2022-10-31T16:23:29;18.90;66.70
28763;DHT22;15918;51.270;6.522;2022-10-31T16:25:54;18.80;66.50
28763;DHT22;15918;51.270;6.522;2022-10-31T16:28:22;18.80;66.60
28763;DHT22;15918;51.270;6.522;2022-10-31T16:30:50;18.90;66.70
28763;DHT22;15918;51.270;6.522;2022-10-31T16:35:57;18.90;66.60
28763;DHT22;15918;51.270;6.522;2022-10-31T16:38:23;18.80;66.60
28763;DHT22;15918;51.270;6.522;2022-10-31T16:40:50;18.80;66.60
28763;DHT22;15918;51.270;6.522;2022-10-31T16:43:18;18.90;66.70
28763;DHT22;15918;51.270;6.522;2022-10-31T16:45:49;18.80;66.60
28763;DHT22;15918;51.270;6.522;2022-10-31T16:48:20;18.80;66.50
28763;DHT22;15918;51.270;6.522;2022-10-31T16:50:49;18.80;66.50
28763;DHT22;15918;51.270;6.522;2022-10-31T16:53:15;18.80;66.50
28763;DHT22;15918;51.270;6.522;2022-10-31T16:55:49;18.80;66.30
28763;DHT22;15918;51.270;6.522;2022-10-31T16:58:28;18.80;66.40
28763;DHT22;15918;51.270;6.522;2022-10-31T17:00:55;18.70;66.20
28763;DHT22;15918;51.270;6.522;2022-10-31T17:03:21;18.80;66.50
28763;DHT22;15918;51.270;6.522;2022-10-31T17:05:47;18.70;66.40
28763;DHT22;15918;51.270;6.522;2022-10-31T17:08:13;18.80;66.50
28763;DHT22;15918;51.270;6.522;2022-10-31T17:10:40;18.70;66.30
28763;DHT22;15918;51.270;6.522;2022-10-31T17:13:11;18.70;66.30
28763;DHT22;15918;51.270;6.522;2022-10-31T17:15:43;18.80;66.30
28763;DHT22;15918;51.270;6.522;2022-10-31T17:18:14;18.80;66.30
28763;DHT22;15918;51.270;6.522;2022-10-31T17:20:41;18.70;66.20
28763;DHT22;15918;51.270;6.522;2022-10-31T17:23:09;18.70;66.20
28763;DHT22;15918;51.270;6.522;2022-10-31T17:25:35;18.70;66.10
28763;DHT22;15918;51.270;6.522;2022-10-31T17:28:01;18.80;66.20
28763;DHT22;15918;51.270;6.522;2022-10-31T17:30:27;18.70;66.20
28763;DHT22;15918;51.270;6.522;2022-10-31T17:32:53;18.70;66.20
28763;DHT22;15918;51.270;6.522;2022-10-31T17:35:20;18.70;66.20
28763;DHT22;15918;51.270;6.522;2022-10-31T17:37:46;18.70;66.20
28763;DHT22;15918;51.270;6.522;2022-10-31T17:40:18;18.80;66.20
28763;DHT22;15918;51.270;6.522;2022-10-31T17:42:51;18.70;66.10
28763;DHT22;15918;51.270;6.522;2022-10-31T17:45:18;18.70;66.00
28763;DHT22;15918;51.270;6.522;2022-10-31T17:47:46;18.70;66.10
28763;DHT22;15918;51.270;6.522;2022-10-31T17:50:13;18.70;66.10
28763;DHT22;15918;51.270;6.522;2022-10-31T17:52:38;18.70;66.10
28763;DHT22;15918;51.270;6.522;2022-10-31T17:55:04;18.70;66.10
28763;DHT22;15918;51.270;6.522;2022-10-31T17:57:33;18.70;66.20